Amherst, OH

5:46 PM EDT on July 28, 2015 (GMT -0400)
South Amherst - WD8CXB | | Change Station
CLOSE
Current Station
Personal Weather Station
Location: South Amherst, OH
Elevation: 748 ft
Nearby Weather Stations

Elev 748 ft 41.36 °N, 82.23 °W | Updated 43 seconds ago

Clear
Clear
92.0 °F
Feels Like 96 °F
N
2.0
Wind Variable Wind from SW
Gusts 3.0 mph

Today
High -- | Low -- °F
--% Chance of Precip.
Yesterday
High -- | Low -- °F
Precip. -- in
6:20 AM 8:50 PM
Waxing Gibbous, 92% visible
Pressure 29.99 in
Visibility 10.0 miles
Clouds Clear
Heat Index 96 °F
Dew Point 68 °F
Humidity 46%
Rainfall 0.00 in
Snow Depth Not available.
UV 6 out of 12
Pollen 5.50 out of 12
Air Quality Not available.
Flu Activity Not available.
METAR KLPR 282053Z AUTO 01008KT 10SM CLR 31/17 A3000 RMK AO2 SLP153 T03060167 58008 TSNO

More Conditions Fewer Conditions

Pressure 29.99 in
Visibility 10.0 miles
Clouds Clear
Heat Index 96 °F
Dew Point 68 °F
Humidity 46%
Rainfall 0.00 in
Snow Depth Not available.
UV 6 out of 12
Pollen 5.50 out of 12
Air Quality Not available.
Flu Activity Not available.
METAR KLPR 282053Z AUTO 01008KT 10SM CLR 31/17 A3000 RMK AO2 SLP153 T03060167 58008 TSNO

More Conditions Fewer Conditions

10-Day Weather Forecast

×

Almanac

Astronomy

Jul. 28, 2015 Rise Set
Actual Time
Civil Twilight
Nautical Twilight
Astronomical Twilight
Moon
Length of Visible Light
Length of Day
Tomorrow will be .
, % of the Moon is Illuminated

Today's Extremes

State Highs State Lows

Community

WunderPhotos

Upload Photos

1,841,948 photos uploaded!

WunderBlogs® & News

Nearby

Air Quality

  Air Quality AQ Index Pollutant
Not available.

Snow Depth

Station Depth Elevation

Earthquake Activity

City Distance Mag. Time & Date
Minimum magnitude displayed is 2.5.

Coastal Water Temperatures

Place Temperature

Stations

Nearby Weather Stations

Station Location Temp. Windchill Dew Point Humidity Wind Precip. Elev Updated Type